Terminal Aerodrome Forecast
Issued by NWS Newport/Morehead City, NC

Home | Current Version | Previous Version | Text Only | Print | Product List | Glossary Off
Versions: 1 2 3 4 5 6 7 8 9 10 11 12 13 14 15

000
FTUS42 KMHX 241000 AAA
TAFEWN
TAF AMD
KEWN 241043Z 2411/2506 25009G16KT 3SM RA BR BKN009
     FM241100 28010KT 4SM RA BR OVC006
     FM241800 30013G22KT P6SM BKN025
     FM242200 28007KT P6SM SKC=

USA.gov is the U.S. government's official web portal to all federal, state and local government web resources and services.